Time;durP1;ratioP1;P1;durP2;ratioP2;P2;SDS_P1;SDS_P2;PMS_P1;PMS_P2;Temp;Humidity;BMP_temperature;BMP_pressure;BME280_temperature;BME280_humidity;BME280_pressure;Samples;Min_cycle;Max_cycle;Signal;HPM_P1;HPM_P2
2023/02/22 00:01:34;;;;;;;4.18;2.47;;;11.60;71.10;;;;;;10361743;28;20069;-59
2023/02/22 00:06:34;;;;;;;4.38;2.20;;;11.60;71.10;;;;;;10360486;28;20018;-59
2023/02/22 00:11:37;;;;;;;4.68;2.63;;;11.70;71.10;;;;;;10361596;28;20026;-59
2023/02/22 00:16:37;;;;;;;4.65;2.95;;;11.60;71.10;;;;;;10361890;28;20052;-58
2023/02/22 00:21:38;;;;;;;5.07;2.55;;;11.60;71.10;;;;;;10359785;28;20062;-59
2023/02/22 00:26:39;;;;;;;4.45;2.50;;;11.60;71.10;;;;;;10359900;28;20115;-57
2023/02/22 00:31:39;;;;;;;5.82;2.80;;;11.60;71.10;;;;;;10360015;28;20049;-59
2023/02/22 00:36:48;;;;;;;4.40;2.60;;;11.60;71.00;;;;;;10360332;28;20528;-58
2023/02/22 00:41:48;;;;;;;4.78;3.05;;;11.60;71.00;;;;;;10360396;28;20030;-59
2023/02/22 00:46:49;;;;;;;5.85;2.88;;;11.60;71.10;;;;;;10360037;28;20050;-59
2023/02/22 00:51:50;;;;;;;3.90;2.45;;;11.60;71.00;;;;;;10343635;28;20076;-58
2023/02/22 00:56:50;;;;;;;4.00;2.40;;;11.60;71.00;;;;;;10360770;28;20533;-58
2023/02/22 01:01:51;;;;;;;3.95;2.40;;;11.60;71.00;;;;;;10361345;28;20034;-59
2023/02/22 01:06:52;;;;;;;5.45;3.28;;;11.60;71.00;;;;;;10359369;28;20060;-58
2023/02/22 01:11:54;;;;;;;4.22;2.88;;;11.60;71.10;;;;;;10363617;28;20242;-58
2023/02/22 01:16:56;;;;;;;6.63;3.45;;;11.60;71.10;;;;;;10366692;28;20219;-58
2023/02/22 01:21:56;;;;;;;4.72;2.72;;;11.60;71.10;;;;;;10366762;28;20026;-59
2023/02/22 01:26:57;;;;;;;5.78;2.65;;;11.60;71.10;;;;;;10382816;28;20371;-58
2023/02/22 01:31:58;;;;;;;4.00;2.50;;;11.60;71.00;;;;;;10366191;28;20525;-59
2023/02/22 01:37:00;;;;;;;5.50;3.28;;;11.60;71.00;;;;;;10367047;28;20141;-59
2023/02/22 01:42:01;;;;;;;4.30;2.28;;;11.60;71.00;;;;;;10349510;28;20053;-59
2023/02/22 01:47:04;;;;;;;4.28;2.63;;;11.60;71.00;;;;;;10365839;28;20100;-59
2023/02/22 01:52:10;;;;;;;4.75;2.78;;;11.60;71.00;;;;;;10382027;28;20410;-58
2023/02/22 01:57:34;;;;;;;5.07;3.03;;;11.60;71.00;;;;;;10364941;28;20018;-59
2023/02/22 02:02:40;;;;;;;4.90;3.38;;;11.50;71.00;;;;;;10364969;28;20030;-59
2023/02/22 02:07:44;;;;;;;3.95;2.55;;;11.60;71.00;;;;;;10365162;28;20044;-59
2023/02/22 02:12:49;;;;;;;4.75;2.92;;;11.50;71.00;;;;;;10365886;28;20109;-58
2023/02/22 02:17:53;;;;;;;4.90;3.28;;;11.50;71.00;;;;;;10364539;28;20389;-59
2023/02/22 02:23:39;;;;;;;3.92;2.65;;;11.50;71.00;;;;;;10364370;28;20030;-58
2023/02/22 02:29:30;;;;;;;4.95;2.88;;;11.60;71.00;;;;;;10365339;28;20076;-58
2023/02/22 02:35:14;;;;;;;5.43;3.37;;;11.50;71.00;;;;;;10363424;28;20153;-59
2023/02/22 02:40:40;;;;;;;4.38;2.30;;;11.60;71.00;;;;;;10365039;28;20069;-59
2023/02/22 02:46:04;;;;;;;6.22;4.63;;;11.60;71.00;;;;;;10364020;28;20041;-58
2023/02/22 02:51:09;;;;;;;4.53;2.88;;;11.50;71.00;;;;;;10364487;28;20183;-58
2023/02/22 02:56:10;;;;;;;4.13;2.75;;;11.60;71.00;;;;;;10362766;28;20033;-59
2023/02/22 03:01:17;;;;;;;6.65;3.20;;;11.50;71.00;;;;;;10364136;28;20030;-59
2023/02/22 03:06:48;;;;;;;4.97;3.00;;;11.50;71.00;;;;;;10346931;28;20022;-59
2023/02/22 03:12:32;;;;;;;5.25;2.78;;;11.50;71.00;;;;;;10362241;28;20041;-58
2023/02/22 03:18:16;;;;;;;4.80;3.05;;;11.50;71.00;;;;;;10372655;28;20038;-59
2023/02/22 03:23:47;;;;;;;5.45;2.92;;;11.50;71.00;;;;;;10363203;28;20022;-59
2023/02/22 03:28:50;;;;;;;4.93;2.50;;;11.50;71.00;;;;;;10358821;28;20478;-58
2023/02/22 03:34:00;;;;;;;4.57;3.17;;;11.50;71.00;;;;;;10360942;28;20469;-59
2023/02/22 03:39:03;;;;;;;5.40;3.00;;;11.50;71.00;;;;;;10336879;28;20034;-58
2023/02/22 03:44:12;;;;;;;4.88;3.30;;;11.50;71.00;;;;;;10320706;28;20390;-58
2023/02/22 03:49:33;;;;;;;5.05;3.25;;;11.50;71.00;;;;;;10304406;28;20293;-58
2023/02/22 03:54:34;;;;;;;5.00;2.97;;;11.50;71.00;;;;;;10320430;28;20065;-59
2023/02/22 03:59:35;;;;;;;4.75;2.95;;;11.50;71.00;;;;;;10321176;28;20042;-58
2023/02/22 04:04:36;;;;;;;5.45;3.13;;;11.50;71.00;;;;;;10319971;28;20057;-58
2023/02/22 04:09:37;;;;;;;5.70;2.97;;;11.50;71.00;;;;;;10319625;28;20462;-58
2023/02/22 04:14:37;;;;;;;4.60;2.83;;;11.50;71.00;;;;;;10319803;28;20026;-59
2023/02/22 04:19:38;;;;;;;4.22;2.63;;;11.50;71.00;;;;;;10319613;28;20533;-59
2023/02/22 04:24:39;;;;;;;4.85;3.03;;;11.50;71.00;;;;;;10319478;28;20050;-59
2023/02/22 04:29:40;;;;;;;4.40;2.95;;;11.50;71.00;;;;;;10303116;28;20022;-58
2023/02/22 04:34:40;;;;;;;5.82;3.35;;;11.50;71.00;;;;;;10345835;28;20743;-59
2023/02/22 04:39:41;;;;;;;6.53;3.28;;;11.50;71.00;;;;;;10335415;28;20520;-59
2023/02/22 04:44:42;;;;;;;4.53;2.83;;;11.50;71.00;;;;;;10320039;28;20378;-58
2023/02/22 04:49:42;;;;;;;4.93;3.30;;;11.40;70.90;;;;;;10328556;28;20026;-58
2023/02/22 04:54:43;;;;;;;5.45;2.75;;;11.40;71.50;;;;;;10326915;28;20030;-59
2023/02/22 04:59:44;;;;;;;5.30;3.25;;;11.40;70.90;;;;;;10326803;28;20454;-59
2023/02/22 05:04:45;;;;;;;6.88;3.53;;;11.40;70.90;;;;;;10327897;28;20307;-59
2023/02/22 05:09:45;;;;;;;5.43;3.28;;;11.50;71.00;;;;;;10310774;28;20105;-59
2023/02/22 05:14:46;;;;;;;6.60;3.28;;;11.40;70.90;;;;;;10326597;28;20111;-59
2023/02/22 05:19:46;;;;;;;5.38;3.63;;;11.40;70.90;;;;;;10327390;28;20446;-59
2023/02/22 05:24:47;;;;;;;6.10;3.33;;;11.40;70.90;;;;;;10326398;28;20500;-58
2023/02/22 05:29:48;;;;;;;5.70;3.75;;;11.40;70.90;;;;;;10327727;28;20061;-59
2023/02/22 05:34:49;;;;;;;5.53;3.05;;;11.40;70.90;;;;;;10326096;28;20483;-58
2023/02/22 05:39:49;;;;;;;7.07;3.70;;;11.40;71.00;;;;;;10318085;28;20117;-58
2023/02/22 05:44:50;;;;;;;4.75;2.97;;;11.40;70.90;;;;;;10325645;28;20069;-59
2023/02/22 05:49:51;;;;;;;5.40;3.35;;;11.40;70.90;;;;;;10324979;28;20051;-59
2023/02/22 05:54:51;;;;;;;5.88;3.55;;;11.40;70.90;;;;;;10325966;28;20027;-59
2023/02/22 05:59:52;;;;;;;7.15;3.35;;;11.40;70.90;;;;;;10324219;28;20469;-58
2023/02/22 06:04:53;;;;;;;6.43;3.28;;;11.40;70.90;;;;;;10324776;28;20025;-59
2023/02/22 06:09:53;;;;;;;6.32;3.47;;;11.40;70.90;;;;;;10308048;28;20275;-59
2023/02/22 06:14:54;;;;;;;6.25;3.15;;;11.40;70.90;;;;;;10323961;28;20033;-58
2023/02/22 06:19:55;;;;;;;4.95;3.72;;;11.40;70.90;;;;;;10323608;28;20117;-58
2023/02/22 06:24:56;;;;;;;6.00;4.20;;;11.40;70.90;;;;;;10324683;28;20027;-58
2023/02/22 06:29:57;;;;;;;6.40;3.80;;;11.40;70.90;;;;;;10325067;28;20034;-59
2023/02/22 06:34:58;;;;;;;6.38;3.80;;;11.40;71.00;;;;;;10351942;28;20148;-59
2023/02/22 06:39:58;;;;;;;6.60;4.38;;;11.40;70.90;;;;;;10364615;28;20108;-58
2023/02/22 06:44:59;;;;;;;5.55;3.83;;;11.40;70.90;;;;;;10364505;28;20022;-59
2023/02/22 06:50:00;;;;;;;7.50;4.10;;;11.40;71.00;;;;;;10362614;28;20034;-57
2023/02/22 06:55:01;;;;;;;6.28;4.18;;;11.40;70.90;;;;;;10360116;28;20105;-58
2023/02/22 07:00:02;;;;;;;6.63;4.80;;;11.40;71.00;;;;;;10362881;28;20113;-58
2023/02/22 07:05:03;;;;;;;6.03;4.00;;;11.30;70.90;;;;;;10364456;28;20385;-58
2023/02/22 07:10:07;;;;;;;5.95;3.90;;;11.30;70.90;;;;;;10346624;28;20030;-58
2023/02/22 07:15:08;;;;;;;5.18;3.90;;;11.30;70.90;;;;;;10364824;28;20052;-59
2023/02/22 07:20:10;;;;;;;5.63;3.42;;;11.30;70.90;;;;;;10363431;28;20533;-58
2023/02/22 07:25:11;;;;;;;5.55;3.63;;;11.30;70.90;;;;;;10364472;28;20026;-59
2023/02/22 07:30:30;;;;;;;7.18;4.00;;;11.40;70.90;;;;;;10363115;28;20453;-59
2023/02/22 07:35:45;;;;;;;7.18;3.90;;;11.30;70.90;;;;;;10364021;28;20046;-58
2023/02/22 07:40:46;;;;;;;8.30;4.65;;;11.30;70.90;;;;;;10322441;28;20097;-58
2023/02/22 07:45:49;;;;;;;5.40;3.55;;;11.30;70.90;;;;;;10321610;28;20089;-59
2023/02/22 07:50:50;;;;;;;6.72;4.35;;;11.30;70.90;;;;;;10322039;28;20026;-58
2023/02/22 07:55:51;;;;;;;7.82;4.75;;;11.30;70.90;;;;;;10322223;28;20080;-59
2023/02/22 08:00:53;;;;;;;7.72;4.82;;;11.30;70.90;;;;;;10305565;28;20597;-59
2023/02/22 08:05:59;;;;;;;6.03;3.90;;;11.30;70.90;;;;;;10321361;28;20109;-58
2023/02/22 08:11:00;;;;;;;6.20;4.25;;;11.30;70.90;;;;;;10321060;28;20033;-59
2023/02/22 08:16:00;;;;;;;8.02;4.53;;;11.30;70.90;;;;;;10321073;28;20018;-58
2023/02/22 08:21:01;;;;;;;6.82;4.35;;;11.30;70.90;;;;;;10320456;28;20203;-58
2023/02/22 08:26:06;;;;;;;6.60;4.25;;;11.30;70.90;;;;;;10320584;28;20058;-59
2023/02/22 08:31:07;;;;;;;7.32;4.78;;;11.30;70.90;;;;;;10320603;28;20045;-58
2023/02/22 08:36:08;;;;;;;6.63;4.25;;;11.30;70.90;;;;;;10359064;28;20051;-58
2023/02/22 08:41:09;;;;;;;8.00;4.43;;;11.30;70.90;;;;;;10362302;28;20034;-58
2023/02/22 08:46:10;;;;;;;7.20;4.20;;;11.30;70.90;;;;;;10361203;28;20117;-59
2023/02/22 08:51:10;;;;;;;8.27;5.55;;;11.30;70.90;;;;;;10360486;28;20049;-59
2023/02/22 08:56:11;;;;;;;7.30;4.28;;;11.30;70.90;;;;;;10362243;28;20057;-57
2023/02/22 09:01:12;;;;;;;6.65;4.68;;;11.30;70.90;;;;;;10360521;28;20510;-58
2023/02/22 09:06:13;;;;;;;10.15;4.93;;;11.30;70.90;;;;;;10361700;28;20059;-58
2023/02/22 09:11:14;;;;;;;7.60;4.85;;;11.40;70.90;;;;;;10361803;28;20871;-59
2023/02/22 09:16:15;;;;;;;8.73;5.15;;;11.30;70.90;;;;;;10359987;28;20030;-58
2023/02/22 09:21:16;;;;;;;6.97;4.57;;;11.30;70.90;;;;;;10360194;28;20433;-59
2023/02/22 09:26:16;;;;;;;7.75;5.18;;;11.30;70.80;;;;;;10343935;28;20014;-58
2023/02/22 09:31:17;;;;;;;7.78;4.50;;;11.40;70.80;;;;;;10361837;28;20112;-59
2023/02/22 09:36:20;;;;;;;7.45;4.45;;;11.40;70.80;;;;;;10367725;28;20072;-59
2023/02/22 09:41:31;;;;;;;6.78;5.07;;;11.40;70.70;;;;;;10368121;28;20461;-59
2023/02/22 09:46:37;;;;;;;7.13;4.40;;;11.40;70.70;;;;;;10367050;28;20105;-59
2023/02/22 09:52:05;;;;;;;6.95;4.95;;;11.40;70.70;;;;;;10366878;28;20022;-59
2023/02/22 09:57:12;;;;;;;7.22;4.57;;;11.40;70.60;;;;;;10367207;28;20022;-58
2023/02/22 10:02:36;;;;;;;9.07;5.10;;;11.40;70.60;;;;;;10366483;28;20137;-59
2023/02/22 10:07:54;;;;;;;8.23;5.80;;;11.50;70.60;;;;;;10350275;28;20022;-58
2023/02/22 10:13:16;;;;;;;7.65;4.68;;;11.50;70.60;;;;;;10366210;28;20026;-59
2023/02/22 10:18:53;;;;;;;7.30;4.53;;;11.50;70.80;;;;;;10366794;28;20100;-57
2023/02/22 10:24:44;;;;;;;6.68;3.92;;;11.50;70.80;;;;;;10379225;28;20074;-58
2023/02/22 10:30:03;;;;;;;8.20;5.27;;;11.50;70.80;;;;;;10367209;28;20079;-58
2023/02/22 10:35:26;;;;;;;6.80;4.57;;;11.50;70.80;;;;;;10365758;28;20078;-59
2023/02/22 10:40:33;;;;;;;7.93;4.65;;;11.50;70.80;;;;;;10340172;28;20113;-59
2023/02/22 10:45:35;;;;;;;6.70;4.50;;;11.50;70.90;;;;;;10308939;28;20042;-58
2023/02/22 10:50:40;;;;;;;7.45;4.35;;;11.50;70.90;;;;;;10307809;28;20022;-59
2023/02/22 10:56:20;;;;;;;6.05;3.63;;;11.50;70.90;;;;;;10323322;28;20048;-59
2023/02/22 11:01:27;;;;;;;8.45;4.65;;;11.50;70.90;;;;;;10323713;28;20463;-58
2023/02/22 11:06:31;;;;;;;5.88;3.60;;;11.60;71.00;;;;;;10323703;28;20022;-59
2023/02/22 11:11:32;;;;;;;6.65;4.03;;;11.60;71.10;;;;;;10323364;28;20030;-59
2023/02/22 11:16:47;;;;;;;6.03;4.30;;;11.60;71.10;;;;;;10318021;28;20496;-59
2023/02/22 11:21:52;;;;;;;6.30;4.63;;;11.60;71.10;;;;;;10322713;28;20042;-59
2023/02/22 11:27:00;;;;;;;6.05;3.47;;;11.60;71.10;;;;;;10323174;28;20069;-58
2023/02/22 11:32:12;;;;;;;6.93;3.83;;;11.70;71.10;;;;;;10327183;28;20060;-58
2023/02/22 11:37:33;;;;;;;6.80;4.25;;;11.70;71.10;;;;;;10362934;28;20038;-58
2023/02/22 11:42:34;;;;;;;;;;;11.70;71.10;;;;;;10363381;28;20058;-58
2023/02/22 11:47:48;;;;;;;5.97;4.05;;;11.70;71.10;;;;;;10363626;28;19928;-59
2023/02/22 11:53:27;;;;;;;6.47;4.00;;;11.70;71.10;;;;;;10363134;28;20397;-59
2023/02/22 11:58:46;;;;;;;6.93;4.78;;;11.70;71.10;;;;;;10361780;28;20035;-58
2023/02/22 12:04:26;;;;;;;5.22;3.90;;;11.70;71.10;;;;;;10361934;28;20465;-58
2023/02/22 12:09:47;;;;;;;7.45;5.57;;;11.70;71.10;;;;;;10363347;28;20129;-58
2023/02/22 12:15:02;;;;;;;6.00;4.32;;;11.70;71.10;;;;;;10362825;28;20022;-59
2023/02/22 12:20:46;;;;;;;7.00;4.43;;;11.70;71.10;;;;;;10362525;28;20038;-58
2023/02/22 12:26:24;;;;;;;6.75;4.45;;;11.70;71.10;;;;;;10372672;28;20584;-59
2023/02/22 12:31:33;;;;;;;7.38;4.95;;;11.70;71.10;;;;;;10369798;28;20041;-60
2023/02/22 12:36:45;;;;;;;4.50;4.00;;;11.70;71.10;;;;;;10361438;28;20426;-58
2023/02/22 12:41:51;;;;;;;7.80;5.45;;;11.70;71.10;;;;;;10360833;28;20474;-58
2023/02/22 12:46:57;;;;;;;6.78;4.00;;;11.70;71.10;;;;;;10361107;28;20046;-59
2023/02/22 12:52:37;;;;;;;7.20;5.40;;;11.70;71.10;;;;;;10360580;28;20025;-59
2023/02/22 12:57:59;;;;;;;7.70;4.60;;;11.70;71.70;;;;;;10360500;28;20572;-59
2023/02/22 13:03:26;;;;;;;7.97;4.22;;;11.70;71.20;;;;;;10361760;28;20101;-59
2023/02/22 13:09:04;;;;;;;7.68;5.20;;;11.60;71.10;;;;;;10366363;28;20585;-58
2023/02/22 13:14:14;;;;;;;8.20;5.90;;;11.70;71.20;;;;;;10368433;28;20030;-58
2023/02/22 13:19:38;;;;;;;6.80;4.72;;;11.60;71.10;;;;;;10369342;28;20026;-58
2023/02/22 13:25:18;;;;;;;6.53;4.13;;;11.70;71.20;;;;;;10369496;28;20115;-59
2023/02/22 13:30:44;;;;;;;7.27;4.43;;;11.60;71.20;;;;;;10369857;28;20068;-59
2023/02/22 13:36:11;;;;;;;7.40;4.90;;;11.60;71.20;;;;;;10367833;28;20124;-58
2023/02/22 13:41:50;;;;;;;8.55;5.35;;;11.60;71.20;;;;;;10367594;28;20420;-57
2023/02/22 13:47:35;;;;;;;7.32;4.05;;;11.60;71.10;;;;;;10368526;28;20018;-58
2023/02/22 13:52:39;;;;;;;6.57;4.22;;;11.60;71.10;;;;;;10368312;28;20022;-58
2023/02/22 13:57:48;;;;;;;6.10;4.03;;;11.60;71.10;;;;;;10366778;28;20014;-58
2023/02/22 14:03:33;;;;;;;6.30;4.32;;;11.60;71.20;;;;;;10366630;28;20097;-58
2023/02/22 14:08:33;;;;;;;5.85;4.15;;;11.60;71.20;;;;;;10367644;28;20117;-59
2023/02/22 14:13:59;;;;;;;6.28;3.70;;;11.60;71.10;;;;;;10365961;28;20140;-58
2023/02/22 14:19:12;;;;;;;7.82;5.40;;;11.60;71.00;;;;;;10366929;28;20026;-58
2023/02/22 14:24:15;;;;;;;6.53;4.45;;;11.60;71.10;;;;;;10366192;28;20097;-59
2023/02/22 14:29:17;;;;;;;6.15;3.60;;;11.60;71.10;;;;;;10365059;28;20544;-59
2023/02/22 14:34:37;;;;;;;6.80;4.25;;;11.60;71.10;;;;;;10365061;28;20054;-59
2023/02/22 14:39:46;;;;;;;5.88;3.92;;;11.60;71.00;;;;;;10338768;28;20144;-58
2023/02/22 14:44:47;;;;;;;7.93;4.32;;;11.60;71.10;;;;;;10325219;28;20019;-59
2023/02/22 14:49:51;;;;;;;5.90;3.95;;;11.60;71.00;;;;;;10326039;28;20015;-59
2023/02/22 14:55:22;;;;;;;7.20;5.35;;;11.60;71.00;;;;;;10324119;28;20394;-59
2023/02/22 15:00:36;;;;;;;7.30;4.30;;;11.60;71.10;;;;;;10323554;28;20035;-59
2023/02/22 15:05:39;;;;;;;7.05;4.13;;;11.60;71.00;;;;;;10308419;28;20010;-59
2023/02/22 15:10:46;;;;;;;7.70;4.50;;;11.60;71.00;;;;;;10323154;28;20052;-59
2023/02/22 15:16:00;;;;;;;6.22;5.15;;;11.60;71.00;;;;;;10323592;28;20022;-59
2023/02/22 15:21:15;;;;;;;6.13;4.00;;;11.60;71.00;;;;;;10323146;28;20034;-59
2023/02/22 15:26:37;;;;;;;7.05;4.15;;;11.60;71.00;;;;;;10322356;28;20565;-59
2023/02/22 15:31:38;;;;;;;6.05;4.53;;;11.60;71.10;;;;;;10307577;28;20508;-58
2023/02/22 15:36:44;;;;;;;6.57;4.40;;;11.60;71.10;;;;;;10362787;28;20042;-59
2023/02/22 15:41:44;;;;;;;7.85;4.57;;;11.60;71.10;;;;;;10362481;28;20036;-58
2023/02/22 15:46:45;;;;;;;6.32;4.45;;;11.60;71.10;;;;;;10362591;28;20358;-59
2023/02/22 15:52:19;;;;;;;6.60;4.65;;;11.60;71.10;;;;;;10363726;28;20059;-59
2023/02/22 15:57:24;;;;;;;6.85;4.57;;;11.60;71.10;;;;;;10362118;28;20389;-59
2023/02/22 16:02:40;;;;;;;6.68;4.28;;;11.60;71.10;;;;;;10361998;28;20567;-58
2023/02/22 16:07:50;;;;;;;7.78;5.15;;;11.60;71.20;;;;;;10362374;28;20022;-58
2023/02/22 16:13:07;;;;;;;6.20;4.78;;;11.50;71.10;;;;;;10362022;28;20022;-58
2023/02/22 16:18:37;;;;;;;7.93;4.35;;;11.50;71.10;;;;;;10361699;28;20058;-59
2023/02/22 16:23:51;;;;;;;5.75;4.22;;;11.60;71.20;;;;;;10361859;28;20378;-58
2023/02/22 16:29:05;;;;;;;6.63;4.45;;;11.60;71.10;;;;;;10360903;28;20022;-59
2023/02/22 16:34:07;;;;;;;6.80;4.97;;;11.50;71.10;;;;;;10361213;28;20405;-58
2023/02/22 16:39:28;;;;;;;7.38;4.35;;;11.50;71.10;;;;;;10337333;28;20560;-59
2023/02/22 16:44:29;;;;;;;6.68;4.85;;;11.50;71.10;;;;;;10333953;28;20022;-59
2023/02/22 16:49:29;;;;;;;6.90;5.20;;;11.50;71.10;;;;;;10335374;28;20057;-59
2023/02/22 16:54:44;;;;;;;7.88;4.35;;;11.50;71.10;;;;;;10333609;28;20050;-58
2023/02/22 16:59:47;;;;;;;9.77;5.63;;;11.50;71.10;;;;;;10333692;28;20494;-58
2023/02/22 17:04:50;;;;;;;6.30;4.32;;;11.50;71.20;;;;;;10333437;28;20546;-58
2023/02/22 17:09:51;;;;;;;8.43;5.13;;;11.50;71.20;;;;;;10334407;28;20045;-58
2023/02/22 17:14:51;;;;;;;10.20;4.78;;;11.50;71.20;;;;;;10333315;28;20065;-59
2023/02/22 17:19:53;;;;;;;6.45;4.68;;;11.50;71.20;;;;;;10333262;28;20026;-58
2023/02/22 17:24:54;;;;;;;7.13;4.85;;;11.50;71.20;;;;;;10317171;28;20033;-59
2023/02/22 17:29:55;;;;;;;6.85;5.05;;;11.50;71.20;;;;;;10332553;28;20054;-59
2023/02/22 17:34:55;;;;;;;6.45;4.85;;;11.50;71.20;;;;;;10360239;28;20092;-58
2023/02/22 17:39:56;;;;;;;8.85;5.65;;;11.50;71.20;;;;;;10373577;28;20030;-59
2023/02/22 17:44:56;;;;;;;6.15;4.70;;;11.50;71.20;;;;;;10372127;28;20054;-58
2023/02/22 17:49:57;;;;;;;8.35;5.65;;;11.50;71.20;;;;;;10371546;28;20049;-59
2023/02/22 17:54:58;;;;;;;7.88;4.78;;;11.50;71.20;;;;;;10365976;28;20382;-58
2023/02/22 18:00:00;;;;;;;6.47;4.78;;;11.50;71.20;;;;;;10365190;28;20125;-58
2023/02/22 18:05:00;;;;;;;7.10;5.68;;;11.50;71.20;;;;;;10366589;28;20022;-59
2023/02/22 18:10:04;;;;;;;7.32;5.40;;;11.50;71.20;;;;;;10366748;28;20454;-59
2023/02/22 18:15:07;;;;;;;6.90;4.72;;;11.50;71.20;;;;;;10348626;28;20026;-58
2023/02/22 18:20:12;;;;;;;8.10;5.70;;;11.50;71.20;;;;;;10364392;28;20080;-58
2023/02/22 18:25:14;;;;;;;9.50;5.43;;;11.50;71.20;;;;;;10364413;28;20018;-59
2023/02/22 18:30:15;;;;;;;7.50;5.10;;;11.40;71.20;;;;;;10364240;28;20026;-59
2023/02/22 18:35:16;;;;;;;8.88;6.32;;;11.50;71.30;;;;;;10365162;28;20422;-58
2023/02/22 18:40:17;;;;;;;7.80;6.38;;;11.50;71.30;;;;;;10339486;28;20449;-58
2023/02/22 18:45:19;;;;;;;8.68;5.82;;;11.50;71.30;;;;;;10322935;28;20459;-58
2023/02/22 18:50:19;;;;;;;9.63;6.60;;;11.50;71.20;;;;;;10324490;28;20532;-58
2023/02/22 18:55:21;;;;;;;8.63;6.13;;;11.50;71.20;;;;;;10324232;28;20097;-58
2023/02/22 19:00:23;;;;;;;8.55;6.57;;;11.50;71.20;;;;;;10322545;28;20034;-58
2023/02/22 19:05:24;;;;;;;8.45;6.05;;;11.40;71.20;;;;;;10322669;28;20015;-58
2023/02/22 19:10:25;;;;;;;8.90;6.00;;;11.50;71.20;;;;;;10323142;28;20053;-58
2023/02/22 19:15:25;;;;;;;9.27;6.35;;;11.50;71.20;;;;;;10321911;28;20541;-59
2023/02/22 19:20:31;;;;;;;8.32;6.20;;;11.40;71.20;;;;;;10321559;28;20130;-58
2023/02/22 19:25:32;;;;;;;7.70;5.30;;;11.40;71.20;;;;;;10321573;28;20033;-59
2023/02/22 19:30:33;;;;;;;8.40;6.35;;;11.50;71.30;;;;;;10322785;28;20054;-59
2023/02/22 19:35:34;;;;;;;9.07;6.60;;;11.40;71.20;;;;;;10354452;28;20455;-58
2023/02/22 19:40:36;;;;;;;9.10;6.55;;;11.40;71.20;;;;;;10337253;28;20125;-57
2023/02/22 19:45:38;;;;;;;8.68;6.70;;;11.40;71.20;;;;;;10322420;28;20101;-58
2023/02/22 19:50:47;;;;;;;11.10;7.43;;;11.40;71.20;;;;;;10322031;28;20018;-58
2023/02/22 19:55:48;;;;;;;8.10;6.30;;;11.40;71.20;;;;;;10321128;28;20096;-57
2023/02/22 20:00:49;;;;;;;8.98;7.20;;;11.40;71.20;;;;;;10320042;28;20427;-59
2023/02/22 20:05:50;;;;;;;8.65;6.03;;;11.40;71.20;;;;;;10320768;28;20019;-58
2023/02/22 20:10:55;;;;;;;9.25;6.57;;;11.40;71.20;;;;;;10320334;28;20023;-57
2023/02/22 20:15:56;;;;;;;9.00;7.03;;;11.40;71.20;;;;;;10303698;28;20081;-58
2023/02/22 20:20:57;;;;;;;10.15;7.30;;;11.40;71.20;;;;;;10319798;28;20554;-58
2023/02/22 20:25:57;;;;;;;11.85;7.20;;;11.40;71.20;;;;;;10319449;28;20713;-59
2023/02/22 20:30:58;;;;;;;9.52;7.25;;;11.40;71.30;;;;;;10320396;28;20122;-58
2023/02/22 20:36:03;;;;;;;13.70;8.07;;;11.40;71.30;;;;;;10321344;28;20093;-58
2023/02/22 20:41:13;;;;;;;11.38;8.00;;;11.40;71.30;;;;;;10359605;28;20034;-59
2023/02/22 20:46:14;;;;;;;12.85;8.40;;;11.40;71.30;;;;;;10359669;28;20021;-58
2023/02/22 20:51:15;;;;;;;10.52;7.97;;;11.40;71.30;;;;;;10359581;28;20052;-58
2023/02/22 20:56:22;;;;;;;11.63;8.15;;;11.40;71.30;;;;;;10343021;28;20033;-59
2023/02/22 21:01:23;;;;;;;11.00;8.65;;;11.40;71.30;;;;;;10359377;28;20034;-58
2023/02/22 21:06:23;;;;;;;13.23;8.85;;;11.40;71.30;;;;;;10359438;28;20025;-59
2023/02/22 21:11:29;;;;;;;13.20;9.45;;;11.40;71.30;;;;;;10359558;28;20477;-58
2023/02/22 21:16:35;;;;;;;12.68;8.90;;;11.40;71.30;;;;;;10359054;28;20022;-58
2023/02/22 21:21:36;;;;;;;12.15;8.82;;;11.40;71.40;;;;;;10358873;28;20054;-58
2023/02/22 21:26:37;;;;;;;13.35;9.10;;;11.40;71.30;;;;;;10361100;28;20130;-58
2023/02/22 21:31:37;;;;;;;11.02;9.10;;;11.40;71.90;;;;;;10366606;28;20404;-58
2023/02/22 21:36:38;;;;;;;11.93;8.82;;;11.40;71.30;;;;;;10365970;28;20060;-58
2023/02/22 21:41:39;;;;;;;13.35;9.10;;;11.40;71.40;;;;;;10367616;28;20117;-58
2023/02/22 21:46:40;;;;;;;16.52;10.73;;;11.40;71.30;;;;;;10365620;28;20477;-58
2023/02/22 21:51:41;;;;;;;12.95;9.25;;;11.40;71.40;;;;;;10365785;28;20026;-58
2023/02/22 21:56:42;;;;;;;13.98;9.05;;;11.40;71.40;;;;;;10365311;28;20022;-59
2023/02/22 22:01:54;;;;;;;14.20;9.43;;;11.40;71.40;;;;;;10365307;28;20034;-58
2023/02/22 22:06:58;;;;;;;13.40;10.10;;;11.40;71.40;;;;;;10349079;28;20173;-59
2023/02/22 22:12:03;;;;;;;15.38;10.90;;;11.40;71.40;;;;;;10366065;28;20121;-59
2023/02/22 22:17:06;;;;;;;14.02;9.35;;;11.40;71.40;;;;;;10364987;28;20050;-58
2023/02/22 22:22:07;;;;;;;11.88;8.98;;;11.40;71.40;;;;;;10364315;28;20045;-58
2023/02/22 22:27:11;;;;;;;13.50;8.70;;;11.40;71.30;;;;;;10364170;28;20026;-58
2023/02/22 22:32:12;;;;;;;11.68;9.23;;;11.40;71.30;;;;;;10365544;28;20516;-59
2023/02/22 22:37:14;;;;;;;13.43;9.82;;;11.40;71.40;;;;;;10363539;28;20077;-58
2023/02/22 22:42:16;;;;;;;15.77;10.23;;;11.40;71.40;;;;;;10364059;28;20018;-59
2023/02/22 22:47:18;;;;;;;14.55;10.07;;;11.40;71.90;;;;;;10365528;28;20125;-58
2023/02/22 22:52:18;;;;;;;15.15;10.82;;;11.40;71.30;;;;;;10363456;28;20463;-58
2023/02/22 22:57:22;;;;;;;14.18;11.60;;;11.40;71.30;;;;;;10363677;28;20029;-58
2023/02/22 23:02:22;;;;;;;16.80;11.50;;;11.40;71.40;;;;;;10363240;28;20622;-58
2023/02/22 23:07:23;;;;;;;14.50;9.98;;;11.40;71.90;;;;;;10364244;28;20105;-58
2023/02/22 23:12:30;;;;;;;12.82;9.82;;;11.40;71.40;;;;;;10362570;28;20521;-59
2023/02/22 23:17:39;;;;;;;13.80;10.18;;;11.40;71.30;;;;;;10363595;28;20030;-59
2023/02/22 23:22:46;;;;;;;13.48;9.43;;;11.40;71.30;;;;;;10363809;28;20061;-59
2023/02/22 23:27:48;;;;;;;14.27;11.15;;;11.40;71.30;;;;;;10362779;28;20617;-58
2023/02/22 23:32:48;;;;;;;14.25;11.02;;;11.30;71.30;;;;;;10362326;28;20033;-58
2023/02/22 23:37:52;;;;;;;12.63;9.65;;;11.40;71.30;;;;;;10361071;28;20057;-58
2023/02/22 23:42:53;;;;;;;13.05;9.27;;;11.30;71.30;;;;;;10361374;28;20026;-58
2023/02/22 23:47:59;;;;;;;14.05;10.68;;;11.30;71.30;;;;;;10361306;28;20056;-59
2023/02/22 23:53:02;;;;;;;16.92;11.32;;;11.30;71.30;;;;;;10360791;28;20022;-59
2023/02/22 23:58:03;;;;;;;14.75;10.52;;;11.30;71.30;;;;;;10361744;28;20022;-57
